sensor_id;sensor_type;location;lat;lon;timestamp;P1;P2;P0
72307;PMS5003;60257;42.638;23.376;2022-09-01T00:02:19;37.33;34.33;21.00
72307;PMS5003;60257;42.638;23.376;2022-09-01T00:04:45;40.00;35.67;22.00
72307;PMS5003;60257;42.638;23.376;2022-09-01T00:07:11;37.67;33.67;20.00
72307;PMS5003;60257;42.638;23.376;2022-09-01T00:09:38;35.67;33.00;20.00
72307;PMS5003;60257;42.638;23.376;2022-09-01T00:12:05;37.67;34.00;21.00
72307;PMS5003;60257;42.638;23.376;2022-09-01T00:14:34;35.67;32.67;21.00
72307;PMS5003;60257;42.638;23.376;2022-09-01T00:17:03;39.33;35.67;23.67
72307;PMS5003;60257;42.638;23.376;2022-09-01T00:19:34;30.00;30.00;20.33
72307;PMS5003;60257;42.638;23.376;2022-09-01T00:22:01;42.67;35.67;22.00
72307;PMS5003;60257;42.638;23.376;2022-09-01T00:24:27;39.00;33.67;22.00
72307;PMS5003;60257;42.638;23.376;2022-09-01T00:26:54;36.00;33.33;21.00
72307;PMS5003;60257;42.638;23.376;2022-09-01T00:29:20;32.00;30.67;20.00
72307;PMS5003;60257;42.638;23.376;2022-09-01T00:31:47;25.67;25.00;15.67
72307;PMS5003;60257;42.638;23.376;2022-09-01T00:34:13;35.67;33.00;21.33
72307;PMS5003;60257;42.638;23.376;2022-09-01T00:36:39;31.00;29.67;19.00
72307;PMS5003;60257;42.638;23.376;2022-09-01T00:39:05;36.33;32.00;20.00
72307;PMS5003;60257;42.638;23.376;2022-09-01T00:41:32;31.00;31.00;20.33
72307;PMS5003;60257;42.638;23.376;2022-09-01T00:44:01;34.33;33.00;20.33
72307;PMS5003;60257;42.638;23.376;2022-09-01T00:46:33;29.00;27.00;20.67
72307;PMS5003;60257;42.638;23.376;2022-09-01T00:49:08;35.33;33.00;22.00
72307;PMS5003;60257;42.638;23.376;2022-09-01T00:51:39;36.00;31.67;18.33
72307;PMS5003;60257;42.638;23.376;2022-09-01T00:54:07;40.67;36.00;23.00
72307;PMS5003;60257;42.638;23.376;2022-09-01T00:56:38;37.33;34.00;21.00
72307;PMS5003;60257;42.638;23.376;2022-09-01T00:59:06;34.00;33.00;22.00
72307;PMS5003;60257;42.638;23.376;2022-09-01T01:01:34;35.00;33.00;21.00
72307;PMS5003;60257;42.638;23.376;2022-09-01T01:04:01;33.67;32.67;20.00
72307;PMS5003;60257;42.638;23.376;2022-09-01T01:06:28;31.33;31.00;20.33
72307;PMS5003;60257;42.638;23.376;2022-09-01T01:08:57;34.00;31.67;20.33
72307;PMS5003;60257;42.638;23.376;2022-09-01T01:11:26;37.67;34.00;21.00
72307;PMS5003;60257;42.638;23.376;2022-09-01T01:16:23;36.33;33.67;23.00
72307;PMS5003;60257;42.638;23.376;2022-09-01T01:18:51;37.33;34.33;22.67
72307;PMS5003;60257;42.638;23.376;2022-09-01T01:21:19;31.33;30.33;18.00
72307;PMS5003;60257;42.638;23.376;2022-09-01T01:26:38;35.67;33.67;22.00
72307;PMS5003;60257;42.638;23.376;2022-09-01T01:29:04;38.00;34.00;20.00
72307;PMS5003;60257;42.638;23.376;2022-09-01T01:31:33;30.33;30.00;19.00
72307;PMS5003;60257;42.638;23.376;2022-09-01T01:33:59;38.00;33.33;22.33
72307;PMS5003;60257;42.638;23.376;2022-09-01T01:36:27;41.67;35.67;20.33
72307;PMS5003;60257;42.638;23.376;2022-09-01T01:39:03;30.33;29.33;18.33
72307;PMS5003;60257;42.638;23.376;2022-09-01T01:41:35;40.00;36.00;22.33
72307;PMS5003;60257;42.638;23.376;2022-09-01T01:44:05;27.67;27.67;14.00
72307;PMS5003;60257;42.638;23.376;2022-09-01T01:46:31;30.33;30.33;22.00
72307;PMS5003;60257;42.638;23.376;2022-09-01T01:48:58;42.00;36.00;24.00
72307;PMS5003;60257;42.638;23.376;2022-09-01T01:51:27;40.00;36.00;22.33
72307;PMS5003;60257;42.638;23.376;2022-09-01T01:53:55;40.00;35.00;22.00
72307;PMS5003;60257;42.638;23.376;2022-09-01T01:56:26;33.33;32.33;22.00
72307;PMS5003;60257;42.638;23.376;2022-09-01T01:58:52;35.67;33.00;21.33
72307;PMS5003;60257;42.638;23.376;2022-09-01T02:01:24;37.00;33.33;20.00
72307;PMS5003;60257;42.638;23.376;2022-09-01T02:03:53;47.33;37.33;23.33
72307;PMS5003;60257;42.638;23.376;2022-09-01T02:06:20;33.00;32.00;22.67
72307;PMS5003;60257;42.638;23.376;2022-09-01T02:08:48;37.33;34.67;23.33
72307;PMS5003;60257;42.638;23.376;2022-09-01T02:11:16;39.67;34.33;21.67
72307;PMS5003;60257;42.638;23.376;2022-09-01T02:13:42;38.00;33.00;19.00
72307;PMS5003;60257;42.638;23.376;2022-09-01T02:16:08;37.33;34.00;20.33
72307;PMS5003;60257;42.638;23.376;2022-09-01T02:18:37;39.00;34.33;21.33
72307;PMS5003;60257;42.638;23.376;2022-09-01T02:21:08;36.67;33.00;20.00
72307;PMS5003;60257;42.638;23.376;2022-09-01T02:23:36;37.67;33.00;22.33
72307;PMS5003;60257;42.638;23.376;2022-09-01T02:26:03;38.67;34.33;21.67
72307;PMS5003;60257;42.638;23.376;2022-09-01T02:28:31;41.00;37.00;22.33
72307;PMS5003;60257;42.638;23.376;2022-09-01T02:31:01;39.67;35.67;23.00
72307;PMS5003;60257;42.638;23.376;2022-09-01T02:33:28;30.33;30.33;19.00
72307;PMS5003;60257;42.638;23.376;2022-09-01T02:35:56;37.00;35.00;21.67
72307;PMS5003;60257;42.638;23.376;2022-09-01T02:38:23;38.33;35.33;21.67
72307;PMS5003;60257;42.638;23.376;2022-09-01T02:40:53;38.67;35.33;23.00
72307;PMS5003;60257;42.638;23.376;2022-09-01T02:43:23;38.33;35.33;22.33
72307;PMS5003;60257;42.638;23.376;2022-09-01T02:45:53;37.67;34.00;20.67
72307;PMS5003;60257;42.638;23.376;2022-09-01T02:48:29;39.67;35.33;22.33
72307;PMS5003;60257;42.638;23.376;2022-09-01T02:50:57;40.00;34.00;22.33
72307;PMS5003;60257;42.638;23.376;2022-09-01T02:53:24;37.00;33.67;22.00
72307;PMS5003;60257;42.638;23.376;2022-09-01T02:55:50;34.67;32.33;21.00
72307;PMS5003;60257;42.638;23.376;2022-09-01T02:58:15;34.67;32.67;21.00
72307;PMS5003;60257;42.638;23.376;2022-09-01T03:00:44;36.33;33.00;21.00
72307;PMS5003;60257;42.638;23.376;2022-09-01T03:03:16;40.67;35.67;24.00
72307;PMS5003;60257;42.638;23.376;2022-09-01T03:05:45;42.67;36.00;22.33
72307;PMS5003;60257;42.638;23.376;2022-09-01T03:08:12;39.33;36.33;23.33
72307;PMS5003;60257;42.638;23.376;2022-09-01T03:10:41;40.33;34.67;21.67
72307;PMS5003;60257;42.638;23.376;2022-09-01T03:13:16;37.67;35.00;23.00
72307;PMS5003;60257;42.638;23.376;2022-09-01T03:15:44;37.00;34.33;22.33
72307;PMS5003;60257;42.638;23.376;2022-09-01T03:18:11;42.00;37.33;23.67
72307;PMS5003;60257;42.638;23.376;2022-09-01T03:20:38;42.33;37.00;24.00
72307;PMS5003;60257;42.638;23.376;2022-09-01T03:23:11;38.67;35.67;22.00
72307;PMS5003;60257;42.638;23.376;2022-09-01T03:25:39;41.00;36.00;23.00
72307;PMS5003;60257;42.638;23.376;2022-09-01T03:28:09;41.00;36.00;23.00
72307;PMS5003;60257;42.638;23.376;2022-09-01T03:30:37;37.33;34.67;20.33
72307;PMS5003;60257;42.638;23.376;2022-09-01T03:33:05;38.33;34.00;21.00
72307;PMS5003;60257;42.638;23.376;2022-09-01T03:35:31;41.00;35.00;22.00
72307;PMS5003;60257;42.638;23.376;2022-09-01T03:37:58;41.33;36.00;22.67
72307;PMS5003;60257;42.638;23.376;2022-09-01T03:40:26;34.33;32.67;21.00
72307;PMS5003;60257;42.638;23.376;2022-09-01T03:43:00;35.00;33.00;20.67
72307;PMS5003;60257;42.638;23.376;2022-09-01T03:45:27;35.00;33.00;21.00
72307;PMS5003;60257;42.638;23.376;2022-09-01T03:47:54;42.00;35.33;22.00
72307;PMS5003;60257;42.638;23.376;2022-09-01T03:50:24;39.00;34.00;21.00
72307;PMS5003;60257;42.638;23.376;2022-09-01T03:52:53;37.67;33.33;23.00
72307;PMS5003;60257;42.638;23.376;2022-09-01T03:55:24;37.00;34.00;23.00
72307;PMS5003;60257;42.638;23.376;2022-09-01T03:57:53;35.00;31.33;19.33
72307;PMS5003;60257;42.638;23.376;2022-09-01T04:00:23;37.67;34.00;21.67
72307;PMS5003;60257;42.638;23.376;2022-09-01T04:02:54;34.33;32.33;20.33
72307;PMS5003;60257;42.638;23.376;2022-09-01T04:05:22;39.00;34.67;23.00
72307;PMS5003;60257;42.638;23.376;2022-09-01T04:07:49;35.67;33.67;23.00
72307;PMS5003;60257;42.638;23.376;2022-09-01T04:10:18;40.67;35.67;24.00
72307;PMS5003;60257;42.638;23.376;2022-09-01T04:12:44;38.33;35.33;23.00
72307;PMS5003;60257;42.638;23.376;2022-09-01T04:15:10;35.33;33.00;21.00
72307;PMS5003;60257;42.638;23.376;2022-09-01T04:17:38;37.00;33.33;22.33
72307;PMS5003;60257;42.638;23.376;2022-09-01T04:20:22;37.33;33.33;21.00
72307;PMS5003;60257;42.638;23.376;2022-09-01T04:22:49;38.67;34.00;22.00
72307;PMS5003;60257;42.638;23.376;2022-09-01T04:25:15;40.00;35.00;22.67
72307;PMS5003;60257;42.638;23.376;2022-09-01T04:27:47;33.33;32.00;21.00
72307;PMS5003;60257;42.638;23.376;2022-09-01T04:30:13;39.33;35.00;22.00
72307;PMS5003;60257;42.638;23.376;2022-09-01T04:32:39;37.67;34.00;22.00
72307;PMS5003;60257;42.638;23.376;2022-09-01T04:35:06;31.33;31.00;19.00
72307;PMS5003;60257;42.638;23.376;2022-09-01T04:37:32;41.33;37.33;23.00
72307;PMS5003;60257;42.638;23.376;2022-09-01T04:40:01;30.67;30.33;19.33
72307;PMS5003;60257;42.638;23.376;2022-09-01T04:42:29;42.00;37.00;23.33
72307;PMS5003;60257;42.638;23.376;2022-09-01T04:44:56;37.33;33.33;20.00
72307;PMS5003;60257;42.638;23.376;2022-09-01T04:47:24;35.00;32.67;20.67
72307;PMS5003;60257;42.638;23.376;2022-09-01T04:49:56;41.67;36.00;21.00
72307;PMS5003;60257;42.638;23.376;2022-09-01T04:52:24;37.00;34.00;20.33
72307;PMS5003;60257;42.638;23.376;2022-09-01T04:54:50;34.33;32.00;18.33
72307;PMS5003;60257;42.638;23.376;2022-09-01T04:57:16;38.33;34.67;20.33
72307;PMS5003;60257;42.638;23.376;2022-09-01T04:59:42;42.00;36.00;23.67
72307;PMS5003;60257;42.638;23.376;2022-09-01T05:02:08;41.00;35.33;23.33
72307;PMS5003;60257;42.638;23.376;2022-09-01T05:04:34;35.00;32.00;21.00
72307;PMS5003;60257;42.638;23.376;2022-09-01T05:07:01;37.00;33.00;20.00
72307;PMS5003;60257;42.638;23.376;2022-09-01T05:09:29;36.33;33.00;21.33
72307;PMS5003;60257;42.638;23.376;2022-09-01T05:11:57;39.67;35.33;22.00
72307;PMS5003;60257;42.638;23.376;2022-09-01T05:14:39;45.33;38.33;23.00
72307;PMS5003;60257;42.638;23.376;2022-09-01T05:17:07;38.00;31.67;20.00
72307;PMS5003;60257;42.638;23.376;2022-09-01T05:19:41;41.00;35.00;22.67
72307;PMS5003;60257;42.638;23.376;2022-09-01T05:22:09;37.33;33.00;22.33
72307;PMS5003;60257;42.638;23.376;2022-09-01T05:24:35;33.00;31.00;21.33
72307;PMS5003;60257;42.638;23.376;2022-09-01T05:27:05;42.67;36.67;23.00
72307;PMS5003;60257;42.638;23.376;2022-09-01T05:29:31;40.67;36.33;23.33
72307;PMS5003;60257;42.638;23.376;2022-09-01T05:31:58;41.00;35.67;23.00
72307;PMS5003;60257;42.638;23.376;2022-09-01T05:34:24;36.33;33.00;22.00
72307;PMS5003;60257;42.638;23.376;2022-09-01T05:36:51;41.00;36.00;22.67
72307;PMS5003;60257;42.638;23.376;2022-09-01T05:39:19;39.33;35.33;22.00
72307;PMS5003;60257;42.638;23.376;2022-09-01T05:41:45;35.33;31.67;21.00
72307;PMS5003;60257;42.638;23.376;2022-09-01T05:44:12;45.00;39.00;25.33
72307;PMS5003;60257;42.638;23.376;2022-09-01T05:46:39;50.67;42.67;27.67
72307;PMS5003;60257;42.638;23.376;2022-09-01T05:49:07;56.67;46.67;29.00
72307;PMS5003;60257;42.638;23.376;2022-09-01T05:51:41;47.67;40.00;23.67
72307;PMS5003;60257;42.638;23.376;2022-09-01T05:54:08;48.33;41.33;26.67
72307;PMS5003;60257;42.638;23.376;2022-09-01T05:56:36;48.00;39.33;27.00
72307;PMS5003;60257;42.638;23.376;2022-09-01T05:59:04;45.00;39.00;25.33
72307;PMS5003;60257;42.638;23.376;2022-09-01T06:01:30;48.00;40.67;26.33
72307;PMS5003;60257;42.638;23.376;2022-09-01T06:03:59;50.67;43.67;27.67
72307;PMS5003;60257;42.638;23.376;2022-09-01T06:06:29;48.00;40.00;26.00
72307;PMS5003;60257;42.638;23.376;2022-09-01T06:09:02;48.33;39.67;24.33
72307;PMS5003;60257;42.638;23.376;2022-09-01T06:11:29;57.67;47.00;29.00
72307;PMS5003;60257;42.638;23.376;2022-09-01T06:13:57;48.00;41.00;27.00
72307;PMS5003;60257;42.638;23.376;2022-09-01T06:16:23;50.33;42.33;26.00
72307;PMS5003;60257;42.638;23.376;2022-09-01T06:18:52;51.67;43.00;28.00
72307;PMS5003;60257;42.638;23.376;2022-09-01T06:21:18;48.67;42.00;26.00
72307;PMS5003;60257;42.638;23.376;2022-09-01T06:23:45;53.33;43.00;28.00
72307;PMS5003;60257;42.638;23.376;2022-09-01T06:26:19;44.00;37.67;24.00
72307;PMS5003;60257;42.638;23.376;2022-09-01T06:28:57;49.00;42.00;28.33
72307;PMS5003;60257;42.638;23.376;2022-09-01T06:31:27;48.00;40.00;24.67
72307;PMS5003;60257;42.638;23.376;2022-09-01T06:33:58;40.67;35.33;25.67
72307;PMS5003;60257;42.638;23.376;2022-09-01T06:36:28;48.33;40.33;26.33
72307;PMS5003;60257;42.638;23.376;2022-09-01T06:38:56;47.00;40.67;27.00
72307;PMS5003;60257;42.638;23.376;2022-09-01T06:41:24;55.00;44.67;28.00
72307;PMS5003;60257;42.638;23.376;2022-09-01T06:43:51;50.33;42.33;28.00
72307;PMS5003;60257;42.638;23.376;2022-09-01T06:46:18;52.67;44.00;28.00
72307;PMS5003;60257;42.638;23.376;2022-09-01T06:48:45;52.67;43.00;27.33
72307;PMS5003;60257;42.638;23.376;2022-09-01T06:51:15;56.67;45.67;29.33
72307;PMS5003;60257;42.638;23.376;2022-09-01T06:53:43;53.67;44.00;28.67
72307;PMS5003;60257;42.638;23.376;2022-09-01T06:56:11;56.33;46.00;28.00
72307;PMS5003;60257;42.638;23.376;2022-09-01T06:58:41;54.67;45.00;28.00
72307;PMS5003;60257;42.638;23.376;2022-09-01T07:01:11;54.33;45.00;28.00
72307;PMS5003;60257;42.638;23.376;2022-09-01T07:03:39;56.33;44.67;28.00
72307;PMS5003;60257;42.638;23.376;2022-09-01T07:06:08;56.67;46.00;28.00
72307;PMS5003;60257;42.638;23.376;2022-09-01T07:08:35;53.00;44.00;27.00
72307;PMS5003;60257;42.638;23.376;2022-09-01T07:11:03;61.00;49.33;31.00
72307;PMS5003;60257;42.638;23.376;2022-09-01T07:13:34;57.33;47.00;28.33
72307;PMS5003;60257;42.638;23.376;2022-09-01T07:16:00;57.00;44.00;29.00
72307;PMS5003;60257;42.638;23.376;2022-09-01T07:18:29;58.67;46.33;29.00
72307;PMS5003;60257;42.638;23.376;2022-09-01T07:20:55;59.00;45.67;29.00
72307;PMS5003;60257;42.638;23.376;2022-09-01T07:23:21;54.67;44.00;27.67
72307;PMS5003;60257;42.638;23.376;2022-09-01T07:25:50;49.67;42.67;28.00
72307;PMS5003;60257;42.638;23.376;2022-09-01T07:28:21;51.67;42.67;28.00
72307;PMS5003;60257;42.638;23.376;2022-09-01T07:30:50;55.67;47.00;30.67
72307;PMS5003;60257;42.638;23.376;2022-09-01T07:33:21;59.00;50.33;29.67
72307;PMS5003;60257;42.638;23.376;2022-09-01T07:35:49;54.67;44.00;28.67
72307;PMS5003;60257;42.638;23.376;2022-09-01T07:38:18;60.33;50.67;32.00
72307;PMS5003;60257;42.638;23.376;2022-09-01T07:40:44;53.00;43.00;29.00
72307;PMS5003;60257;42.638;23.376;2022-09-01T07:43:17;53.00;44.33;28.00
72307;PMS5003;60257;42.638;23.376;2022-09-01T07:45:47;57.00;47.33;29.33
72307;PMS5003;60257;42.638;23.376;2022-09-01T07:48:15;57.00;48.33;28.33
72307;PMS5003;60257;42.638;23.376;2022-09-01T07:50:45;56.33;47.33;30.00
72307;PMS5003;60257;42.638;23.376;2022-09-01T07:53:13;49.33;40.33;25.67
72307;PMS5003;60257;42.638;23.376;2022-09-01T07:55:43;49.67;41.67;25.67
72307;PMS5003;60257;42.638;23.376;2022-09-01T07:58:10;56.00;47.67;30.67
72307;PMS5003;60257;42.638;23.376;2022-09-01T08:00:39;56.33;47.67;30.00
72307;PMS5003;60257;42.638;23.376;2022-09-01T08:03:08;52.00;44.33;28.33
72307;PMS5003;60257;42.638;23.376;2022-09-01T08:05:34;58.33;49.33;30.67
72307;PMS5003;60257;42.638;23.376;2022-09-01T08:07:59;61.00;48.00;30.33
72307;PMS5003;60257;42.638;23.376;2022-09-01T08:10:25;57.00;47.67;30.33
72307;PMS5003;60257;42.638;23.376;2022-09-01T08:12:50;59.67;49.33;30.00
72307;PMS5003;60257;42.638;23.376;2022-09-01T08:15:16;56.00;46.67;29.33
72307;PMS5003;60257;42.638;23.376;2022-09-01T08:17:42;53.33;45.00;28.00
72307;PMS5003;60257;42.638;23.376;2022-09-01T08:20:07;54.33;45.00;27.33
72307;PMS5003;60257;42.638;23.376;2022-09-01T08:22:34;49.67;42.67;25.67
72307;PMS5003;60257;42.638;23.376;2022-09-01T08:25:06;52.33;45.00;29.00
72307;PMS5003;60257;42.638;23.376;2022-09-01T08:27:33;52.00;43.67;27.67
72307;PMS5003;60257;42.638;23.376;2022-09-01T08:30:04;53.00;44.67;29.67
72307;PMS5003;60257;42.638;23.376;2022-09-01T08:32:32;48.67;40.67;25.33
72307;PMS5003;60257;42.638;23.376;2022-09-01T08:34:58;52.67;43.33;27.67
72307;PMS5003;60257;42.638;23.376;2022-09-01T08:37:23;51.67;39.67;25.67
72307;PMS5003;60257;42.638;23.376;2022-09-01T08:39:49;50.33;42.00;26.33
72307;PMS5003;60257;42.638;23.376;2022-09-01T08:42:19;51.00;40.67;27.00
72307;PMS5003;60257;42.638;23.376;2022-09-01T08:47:32;47.33;39.67;26.33
72307;PMS5003;60257;42.638;23.376;2022-09-01T08:49:57;45.33;38.67;25.67
72307;PMS5003;60257;42.638;23.376;2022-09-01T08:57:36;52.00;43.00;27.67
72307;PMS5003;60257;42.638;23.376;2022-09-01T09:00:05;50.00;41.67;27.33
72307;PMS5003;60257;42.638;23.376;2022-09-01T09:05:34;50.33;41.00;26.33
72307;PMS5003;60257;42.638;23.376;2022-09-01T09:10:50;49.33;41.33;25.00
72307;PMS5003;60257;42.638;23.376;2022-09-01T09:16:20;50.00;41.33;26.67
72307;PMS5003;60257;42.638;23.376;2022-09-01T09:19:03;50.00;40.33;27.67
72307;PMS5003;60257;42.638;23.376;2022-09-01T09:21:37;45.33;39.00;23.67
72307;PMS5003;60257;42.638;23.376;2022-09-01T09:26:51;43.67;38.33;25.00
72307;PMS5003;60257;42.638;23.376;2022-09-01T09:29:19;47.67;39.67;25.00
72307;PMS5003;60257;42.638;23.376;2022-09-01T09:31:46;36.33;34.00;22.00
72307;PMS5003;60257;42.638;23.376;2022-09-01T09:34:33;50.33;41.00;25.67
72307;PMS5003;60257;42.638;23.376;2022-09-01T09:39:59;36.67;32.33;22.00
72307;PMS5003;60257;42.638;23.376;2022-09-01T09:42:25;42.00;37.33;23.00
72307;PMS5003;60257;42.638;23.376;2022-09-01T09:44:52;37.50;33.50;21.25
72307;PMS5003;60257;42.638;23.376;2022-09-01T09:50:20;36.25;33.50;21.00
72307;PMS5003;60257;42.638;23.376;2022-09-01T09:52:50;34.00;32.50;21.50
72307;PMS5003;60257;42.638;23.376;2022-09-01T09:57:46;40.50;34.50;23.25
72307;PMS5003;60257;42.638;23.376;2022-09-01T10:00:29;40.25;33.25;22.75
72307;PMS5003;60257;42.638;23.376;2022-09-01T10:08:04;36.00;33.50;23.25
72307;PMS5003;60257;42.638;23.376;2022-09-01T10:13:17;34.00;32.25;22.00
72307;PMS5003;60257;42.638;23.376;2022-09-01T10:15:48;29.50;29.25;20.25
72307;PMS5003;60257;42.638;23.376;2022-09-01T10:18:20;32.50;31.50;19.50
72307;PMS5003;60257;42.638;23.376;2022-09-01T10:20:58;34.50;32.00;22.25
72307;PMS5003;60257;42.638;23.376;2022-09-01T10:23:28;37.75;34.00;22.25
72307;PMS5003;60257;42.638;23.376;2022-09-01T10:26:01;36.00;33.25;23.25
72307;PMS5003;60257;42.638;23.376;2022-09-01T10:28:33;37.50;34.50;23.25
72307;PMS5003;60257;42.638;23.376;2022-09-01T10:31:10;35.25;33.25;23.00
72307;PMS5003;60257;42.638;23.376;2022-09-01T10:33:36;37.25;34.25;22.75
72307;PMS5003;60257;42.638;23.376;2022-09-01T10:36:01;35.50;33.75;21.75
72307;PMS5003;60257;42.638;23.376;2022-09-01T10:38:30;37.25;33.25;22.50
72307;PMS5003;60257;42.638;23.376;2022-09-01T10:40:56;42.75;37.50;24.25
72307;PMS5003;60257;42.638;23.376;2022-09-01T10:46:51;36.25;33.75;23.25
72307;PMS5003;60257;42.638;23.376;2022-09-01T10:48:53;35.25;32.25;22.25
72307;PMS5003;60257;42.638;23.376;2022-09-01T10:54:04;34.75;32.00;21.00
72307;PMS5003;60257;42.638;23.376;2022-09-01T10:56:43;32.75;31.50;23.00
72307;PMS5003;60257;42.638;23.376;2022-09-01T11:07:28;37.25;34.50;22.00
72307;PMS5003;60257;42.638;23.376;2022-09-01T11:18:06;34.75;32.00;22.25
72307;PMS5003;60257;42.638;23.376;2022-09-01T11:20:37;36.50;34.25;22.75
72307;PMS5003;60257;42.638;23.376;2022-09-01T11:25:41;35.25;33.25;22.00
72307;PMS5003;60257;42.638;23.376;2022-09-01T11:30:54;39.00;35.25;23.75
72307;PMS5003;60257;42.638;23.376;2022-09-01T11:33:46;37.25;33.75;22.25
72307;PMS5003;60257;42.638;23.376;2022-09-01T11:39:05;36.50;33.75;22.75
72307;PMS5003;60257;42.638;23.376;2022-09-01T11:41:50;50.00;42.67;28.67
72307;PMS5003;60257;42.638;23.376;2022-09-01T11:44:30;46.25;39.25;24.25
72307;PMS5003;60257;42.638;23.376;2022-09-01T11:47:16;39.25;35.00;25.00
72307;PMS5003;60257;42.638;23.376;2022-09-01T11:49:49;37.00;33.25;23.00
72307;PMS5003;60257;42.638;23.376;2022-09-01T11:52:18;37.75;34.00;22.50
72307;PMS5003;60257;42.638;23.376;2022-09-01T11:54:45;40.50;36.75;23.00
72307;PMS5003;60257;42.638;23.376;2022-09-01T11:57:16;38.75;35.50;23.25
72307;PMS5003;60257;42.638;23.376;2022-09-01T11:59:42;37.75;34.50;23.25
72307;PMS5003;60257;42.638;23.376;2022-09-01T12:02:07;44.00;36.50;25.25
72307;PMS5003;60257;42.638;23.376;2022-09-01T12:04:41;37.50;33.75;20.75
72307;PMS5003;60257;42.638;23.376;2022-09-01T12:07:08;39.00;35.75;24.00
72307;PMS5003;60257;42.638;23.376;2022-09-01T12:09:38;37.25;33.75;21.75
72307;PMS5003;60257;42.638;23.376;2022-09-01T12:12:24;35.50;32.75;20.25
72307;PMS5003;60257;42.638;23.376;2022-09-01T12:15:04;37.25;33.75;22.50
72307;PMS5003;60257;42.638;23.376;2022-09-01T12:17:31;38.75;34.50;23.75
72307;PMS5003;60257;42.638;23.376;2022-09-01T12:20:17;37.75;34.50;22.25
72307;PMS5003;60257;42.638;23.376;2022-09-01T12:23:02;40.75;35.25;22.50
72307;PMS5003;60257;42.638;23.376;2022-09-01T12:25:39;39.50;35.25;22.75
72307;PMS5003;60257;42.638;23.376;2022-09-01T12:28:05;37.25;34.50;24.00
72307;PMS5003;60257;42.638;23.376;2022-09-01T12:30:31;40.25;36.25;23.50
72307;PMS5003;60257;42.638;23.376;2022-09-01T12:33:04;42.00;36.75;24.50
72307;PMS5003;60257;42.638;23.376;2022-09-01T12:35:32;33.50;31.75;23.50
72307;PMS5003;60257;42.638;23.376;2022-09-01T12:40:45;38.00;33.25;24.00
72307;PMS5003;60257;42.638;23.376;2022-09-01T12:43:29;37.00;33.25;23.00
72307;PMS5003;60257;42.638;23.376;2022-09-01T12:45:57;38.50;34.50;24.75
72307;PMS5003;60257;42.638;23.376;2022-09-01T12:48:35;37.00;33.50;22.50
72307;PMS5003;60257;42.638;23.376;2022-09-01T12:51:04;39.75;35.50;21.50
72307;PMS5003;60257;42.638;23.376;2022-09-01T12:53:48;44.25;36.50;24.00
72307;PMS5003;60257;42.638;23.376;2022-09-01T12:56:32;46.50;39.50;25.50
72307;PMS5003;60257;42.638;23.376;2022-09-01T12:59:04;37.00;34.25;24.00
72307;PMS5003;60257;42.638;23.376;2022-09-01T13:01:32;33.25;30.75;20.50
72307;PMS5003;60257;42.638;23.376;2022-09-01T13:06:53;37.50;33.25;21.50
72307;PMS5003;60257;42.638;23.376;2022-09-01T13:09:20;42.25;35.50;22.75
72307;PMS5003;60257;42.638;23.376;2022-09-01T13:11:46;36.25;33.50;22.00
72307;PMS5003;60257;42.638;23.376;2022-09-01T13:14:13;43.50;36.00;23.75
72307;PMS5003;60257;42.638;23.376;2022-09-01T13:16:40;44.00;36.25;23.75
72307;PMS5003;60257;42.638;23.376;2022-09-01T13:19:06;48.00;40.33;27.33
72307;PMS5003;60257;42.638;23.376;2022-09-01T13:21:32;39.00;34.75;24.00
72307;PMS5003;60257;42.638;23.376;2022-09-01T13:23:59;37.00;33.75;23.00
72307;PMS5003;60257;42.638;23.376;2022-09-01T13:26:30;37.75;34.75;23.50
72307;PMS5003;60257;42.638;23.376;2022-09-01T13:28:57;42.25;36.25;24.75
72307;PMS5003;60257;42.638;23.376;2022-09-01T13:31:23;40.50;34.75;24.25
72307;PMS5003;60257;42.638;23.376;2022-09-01T13:33:49;43.00;36.00;24.25
72307;PMS5003;60257;42.638;23.376;2022-09-01T13:36:14;40.25;36.25;24.25
72307;PMS5003;60257;42.638;23.376;2022-09-01T13:38:40;40.25;35.75;22.75
72307;PMS5003;60257;42.638;23.376;2022-09-01T13:41:06;43.75;36.25;25.00
72307;PMS5003;60257;42.638;23.376;2022-09-01T13:43:35;46.00;39.50;25.25
72307;PMS5003;60257;42.638;23.376;2022-09-01T13:46:00;53.75;42.50;28.25
72307;PMS5003;60257;42.638;23.376;2022-09-01T13:48:26;49.25;40.50;26.50
72307;PMS5003;60257;42.638;23.376;2022-09-01T13:50:53;48.75;39.00;25.25
72307;PMS5003;60257;42.638;23.376;2022-09-01T13:53:19;46.50;39.75;26.00
72307;PMS5003;60257;42.638;23.376;2022-09-01T13:55:45;38.75;35.25;24.00
72307;PMS5003;60257;42.638;23.376;2022-09-01T13:58:11;44.00;38.50;25.25
72307;PMS5003;60257;42.638;23.376;2022-09-01T14:00:40;44.00;37.00;24.00
72307;PMS5003;60257;42.638;23.376;2022-09-01T14:03:13;42.00;37.25;24.50
72307;PMS5003;60257;42.638;23.376;2022-09-01T14:05:43;44.75;38.25;26.75
72307;PMS5003;60257;42.638;23.376;2022-09-01T14:08:10;42.25;36.75;26.00
72307;PMS5003;60257;42.638;23.376;2022-09-01T14:10:38;37.50;33.50;22.00
72307;PMS5003;60257;42.638;23.376;2022-09-01T14:13:07;42.00;36.25;23.25
72307;PMS5003;60257;42.638;23.376;2022-09-01T14:15:33;39.50;34.50;23.00
72307;PMS5003;60257;42.638;23.376;2022-09-01T14:17:59;39.75;35.75;25.00
72307;PMS5003;60257;42.638;23.376;2022-09-01T14:20:27;44.25;37.75;25.50
72307;PMS5003;60257;42.638;23.376;2022-09-01T14:22:55;45.00;37.50;24.00
72307;PMS5003;60257;42.638;23.376;2022-09-01T14:25:21;43.50;37.75;22.75
72307;PMS5003;60257;42.638;23.376;2022-09-01T14:27:47;39.00;35.75;24.75
72307;PMS5003;60257;42.638;23.376;2022-09-01T14:30:20;32.50;31.75;20.25
72307;PMS5003;60257;42.638;23.376;2022-09-01T14:32:48;43.67;38.67;27.67
72307;PMS5003;60257;42.638;23.376;2022-09-01T14:35:14;40.00;36.00;24.00
72307;PMS5003;60257;42.638;23.376;2022-09-01T14:37:42;39.67;36.00;24.33
72307;PMS5003;60257;42.638;23.376;2022-09-01T14:40:09;40.33;37.00;25.00
72307;PMS5003;60257;42.638;23.376;2022-09-01T14:42:35;44.00;37.00;24.00
72307;PMS5003;60257;42.638;23.376;2022-09-01T14:45:02;46.00;37.67;25.67
72307;PMS5003;60257;42.638;23.376;2022-09-01T14:47:29;44.00;39.00;24.33
72307;PMS5003;60257;42.638;23.376;2022-09-01T14:49:54;43.25;37.25;24.50
72307;PMS5003;60257;42.638;23.376;2022-09-01T14:52:20;42.00;37.67;24.67
72307;PMS5003;60257;42.638;23.376;2022-09-01T14:54:46;50.00;42.00;26.33
72307;PMS5003;60257;42.638;23.376;2022-09-01T14:57:12;40.75;36.50;25.50
72307;PMS5003;60257;42.638;23.376;2022-09-01T14:59:39;42.33;36.67;24.33
72307;PMS5003;60257;42.638;23.376;2022-09-01T15:02:06;38.50;35.25;23.25